Time;durP1;ratioP1;P1;durP2;ratioP2;P2;SDS_P1;SDS_P2;PMS_P1;PMS_P2;Temp;Humidity;BMP_temperature;BMP_pressure;BME280_temperature;BME280_humidity;BME280_pressure;Samples;Min_cycle;Max_cycle;Signal;HPM_P1;HPM_P2
2022/05/31 00:01:49;;;;;;;3.03;0.98;;;;;;;;;;5135447;27;20235;-19
2022/05/31 00:04:17;;;;;;;3.00;0.90;;;;;;;;;;5135592;27;20623;-20
2022/05/31 00:06:45;;;;;;;5.82;0.60;;;;;;;;;;5132762;27;20227;-20
2022/05/31 00:09:13;;;;;;;2.03;0.90;;;;;;;;;;5135257;27;20716;-19
2022/05/31 00:11:41;;;;;;;3.20;1.00;;;;;;;;;;5134170;27;20317;-19
2022/05/31 00:14:08;;;;;;;7.75;0.90;;;;;;;;;;5135652;27;20257;-19
2022/05/31 00:16:36;;;;;;;2.42;1.00;;;;;;;;;;5136650;27;20234;-19
2022/05/31 00:19:03;;;;;;;1.85;0.75;;;;;;;;;;5132719;27;20292;-18
2022/05/31 00:21:33;;;;;;;2.58;0.80;;;;;;;;;;5136744;27;20243;-18
2022/05/31 00:24:02;;;;;;;4.13;1.00;;;;;;;;;;5133615;27;20239;-19
2022/05/31 00:26:29;;;;;;;5.20;0.82;;;;;;;;;;5135693;27;20231;-20
2022/05/31 00:28:57;;;;;;;2.58;0.80;;;;;;;;;;5139298;27;20250;-19
2022/05/31 00:31:24;;;;;;;1.88;0.85;;;;;;;;;;5134541;27;20698;-18
2022/05/31 00:33:52;;;;;;;3.25;0.85;;;;;;;;;;5133296;27;20421;-20
2022/05/31 00:36:19;;;;;;;3.13;0.60;;;;;;;;;;5135443;27;20302;-20
2022/05/31 00:38:47;;;;;;;2.88;0.90;;;;;;;;;;5135954;27;20346;-19
2022/05/31 00:41:25;;;;;;;1.80;0.60;;;;;;;;;;5132818;27;20702;-19
2022/05/31 00:43:57;;;;;;;1.75;0.70;;;;;;;;;;5135487;27;20239;-20
2022/05/31 00:46:25;;;;;;;1.67;0.70;;;;;;;;;;5130376;27;20243;-19
2022/05/31 00:48:56;;;;;;;1.83;0.80;;;;;;;;;;5134161;27;20243;-19
2022/05/31 00:51:23;;;;;;;2.53;0.80;;;;;;;;;;5131643;27;20231;-19
2022/05/31 00:53:53;;;;;;;2.40;0.80;;;;;;;;;;5134169;27;20234;-19
2022/05/31 00:56:23;;;;;;;1.42;0.70;;;;;;;;;;5137585;27;20242;-19
2022/05/31 00:58:53;;;;;;;1.77;0.70;;;;;;;;;;5137216;27;20319;-20
2022/05/31 01:01:21;;;;;;;1.80;0.80;;;;;;;;;;5136608;27;20222;-19
2022/05/31 01:03:48;;;;;;;2.90;0.80;;;;;;;;;;5138850;27;20280;-19
2022/05/31 01:06:15;;;;;;;1.10;0.50;;;;;;;;;;5139633;27;20231;-19
2022/05/31 01:08:45;;;;;;;4.50;0.80;;;;;;;;;;5138168;27;20292;-19
2022/05/31 01:11:13;;;;;;;2.95;0.80;;;;;;;;;;5135620;27;20312;-20
2022/05/31 01:13:42;;;;;;;0.63;0.45;;;;;;;;;;5139320;27;20241;-18
2022/05/31 01:16:11;;;;;;;2.78;0.80;;;;;;;;;;5135740;27;20235;-19
2022/05/31 01:18:38;;;;;;;1.88;0.77;;;;;;;;;;5140285;27;20309;-19
2022/05/31 01:21:07;;;;;;;2.83;0.73;;;;;;;;;;5133063;27;20241;-21
2022/05/31 01:23:36;;;;;;;1.60;0.80;;;;;;;;;;5136395;27;20238;-20
2022/05/31 01:26:04;;;;;;;3.72;0.70;;;;;;;;;;5137462;27;20236;-19
2022/05/31 01:28:37;;;;;;;2.50;0.68;;;;;;;;;;5138423;27;20237;-18
2022/05/31 01:31:06;;;;;;;1.45;0.80;;;;;;;;;;5134849;27;20235;-19
2022/05/31 01:33:34;;;;;;;1.92;0.70;;;;;;;;;;5134699;27;20245;-18
2022/05/31 01:36:02;;;;;;;6.03;0.98;;;;;;;;;;5144206;27;20237;-19
2022/05/31 01:38:32;;;;;;;1.27;0.60;;;;;;;;;;5137386;27;20243;-19
2022/05/31 01:41:01;;;;;;;0.85;0.70;;;;;;;;;;5135335;27;20237;-19
2022/05/31 01:43:28;;;;;;;2.58;0.70;;;;;;;;;;5137173;27;20241;-19
2022/05/31 01:45:56;;;;;;;1.85;0.73;;;;;;;;;;5146066;27;20716;-19
2022/05/31 01:48:23;;;;;;;3.85;0.70;;;;;;;;;;5138985;27;20258;-20
2022/05/31 01:50:51;;;;;;;2.72;0.70;;;;;;;;;;5140133;27;20235;-19
2022/05/31 01:53:18;;;;;;;3.20;0.68;;;;;;;;;;5138276;27;20238;-19
2022/05/31 01:55:48;;;;;;;3.67;1.20;;;;;;;;;;5135006;27;20230;-19
2022/05/31 01:58:17;;;;;;;0.73;0.50;;;;;;;;;;5130142;27;20663;-21
2022/05/31 02:00:45;;;;;;;0.95;0.70;;;;;;;;;;5133785;27;20247;-19
2022/05/31 02:03:13;;;;;;;1.13;0.63;;;;;;;;;;5148567;27;20235;-21
2022/05/31 02:05:43;;;;;;;2.78;0.80;;;;;;;;;;5134932;27;20235;-21
2022/05/31 02:08:11;;;;;;;1.23;0.70;;;;;;;;;;5133818;27;20993;-20
2022/05/31 02:10:39;;;;;;;2.38;0.95;;;;;;;;;;5137739;27;20237;-20
2022/05/31 02:13:08;;;;;;;1.52;0.68;;;;;;;;;;5149195;27;20230;-20
2022/05/31 02:15:35;;;;;;;3.25;0.75;;;;;;;;;;5135108;27;20227;-21
2022/05/31 02:18:03;;;;;;;2.45;0.90;;;;;;;;;;5138141;27;20231;-21
2022/05/31 02:20:30;;;;;;;1.90;0.73;;;;;;;;;;5140326;27;20231;-19
2022/05/31 02:22:57;;;;;;;1.45;0.57;;;;;;;;;;5145322;27;20246;-20
2022/05/31 02:25:25;;;;;;;1.20;0.50;;;;;;;;;;5147475;27;20600;-20
2022/05/31 02:27:52;;;;;;;1.33;0.60;;;;;;;;;;5136642;27;20238;-20
2022/05/31 02:30:21;;;;;;;2.25;0.70;;;;;;;;;;5146352;27;20235;-21
2022/05/31 02:32:48;;;;;;;0.98;0.68;;;;;;;;;;5141008;27;20235;-20
2022/05/31 02:35:16;;;;;;;2.67;0.82;;;;;;;;;;5137544;27;20235;-20
2022/05/31 02:37:44;;;;;;;1.17;0.75;;;;;;;;;;5140022;27;20224;-21
2022/05/31 02:40:12;;;;;;;5.22;0.80;;;;;;;;;;5136414;27;20716;-20
2022/05/31 02:42:39;;;;;;;2.63;1.02;;;;;;;;;;5138537;27;20246;-21
2022/05/31 02:45:09;;;;;;;2.00;0.60;;;;;;;;;;5134260;27;20238;-20
2022/05/31 02:47:39;;;;;;;1.83;0.90;;;;;;;;;;5139943;27;20240;-20
2022/05/31 02:50:07;;;;;;;1.25;0.77;;;;;;;;;;5135942;27;20246;-20
2022/05/31 02:52:35;;;;;;;1.58;0.88;;;;;;;;;;5145029;27;20705;-21
2022/05/31 02:55:02;;;;;;;0.88;0.60;;;;;;;;;;5129545;27;20240;-21
2022/05/31 02:57:29;;;;;;;1.17;0.70;;;;;;;;;;5136464;27;20238;-20
2022/05/31 02:59:57;;;;;;;1.45;0.95;;;;;;;;;;5134673;27;20261;-20
2022/05/31 03:02:24;;;;;;;0.70;0.68;;;;;;;;;;5143317;27;20226;-20
2022/05/31 03:04:53;;;;;;;2.75;0.68;;;;;;;;;;5137243;27;20583;-21
2022/05/31 03:07:20;;;;;;;1.83;0.90;;;;;;;;;;5131256;27;20340;-20
2022/05/31 03:09:47;;;;;;;1.17;0.82;;;;;;;;;;5135907;27;20579;-21
2022/05/31 03:12:16;;;;;;;1.42;0.90;;;;;;;;;;5139762;27;20262;-20
2022/05/31 03:14:44;;;;;;;1.30;0.70;;;;;;;;;;5129604;27;20224;-20
2022/05/31 03:17:12;;;;;;;2.00;0.80;;;;;;;;;;5134548;27;20231;-20
2022/05/31 03:19:40;;;;;;;1.38;0.70;;;;;;;;;;5138887;27;20227;-18
2022/05/31 03:22:09;;;;;;;0.98;0.70;;;;;;;;;;5133321;27;20235;-20
2022/05/31 03:24:37;;;;;;;2.72;0.80;;;;;;;;;;5144525;27;20235;-20
2022/05/31 03:27:06;;;;;;;1.23;0.60;;;;;;;;;;5140707;27;20227;-21
2022/05/31 03:29:33;;;;;;;3.42;0.82;;;;;;;;;;5143723;27;20230;-20
2022/05/31 03:32:00;;;;;;;1.17;0.63;;;;;;;;;;5129714;27;20235;-21
2022/05/31 03:34:28;;;;;;;1.30;0.80;;;;;;;;;;5141538;27;20235;-21
2022/05/31 03:36:55;;;;;;;1.05;0.50;;;;;;;;;;5141587;27;21018;-19
2022/05/31 03:39:24;;;;;;;1.48;0.80;;;;;;;;;;5143399;27;20231;-20
2022/05/31 03:41:51;;;;;;;0.90;0.80;;;;;;;;;;5140663;27;21035;-20
2022/05/31 03:44:18;;;;;;;1.38;0.70;;;;;;;;;;5140103;27;20246;-20
2022/05/31 03:46:47;;;;;;;1.58;0.82;;;;;;;;;;5140965;27;20227;-22
2022/05/31 03:49:15;;;;;;;0.82;0.73;;;;;;;;;;5139621;27;20227;-21
2022/05/31 03:51:42;;;;;;;1.83;0.80;;;;;;;;;;5146730;27;20254;-20
2022/05/31 03:54:09;;;;;;;3.30;0.70;;;;;;;;;;5141932;27;20237;-20
2022/05/31 03:56:38;;;;;;;1.50;0.70;;;;;;;;;;5134989;27;20238;-21
2022/05/31 03:59:05;;;;;;;1.08;0.60;;;;;;;;;;5137877;27;20235;-19
2022/05/31 04:01:32;;;;;;;2.63;0.90;;;;;;;;;;5131350;27;20231;-20
2022/05/31 04:04:00;;;;;;;1.60;0.80;;;;;;;;;;5147918;27;21017;-20
2022/05/31 04:06:27;;;;;;;1.25;0.70;;;;;;;;;;5135398;27;20264;-21
2022/05/31 04:08:55;;;;;;;2.30;0.77;;;;;;;;;;5142386;27;20234;-21
2022/05/31 04:11:24;;;;;;;1.60;0.75;;;;;;;;;;5129065;27;20381;-21
2022/05/31 04:13:53;;;;;;;2.97;1.00;;;;;;;;;;5137648;27;20679;-21
2022/05/31 04:16:20;;;;;;;3.33;0.75;;;;;;;;;;5131044;27;20231;-20
2022/05/31 04:18:50;;;;;;;1.13;0.80;;;;;;;;;;5137493;27;20634;-20
2022/05/31 04:21:17;;;;;;;1.13;0.70;;;;;;;;;;5142902;27;20231;-20
2022/05/31 04:24:01;;;;;;;2.33;0.70;;;;;;;;;;5134333;27;20243;-20
2022/05/31 04:26:29;;;;;;;2.13;0.85;;;;;;;;;;5136543;27;20370;-21
2022/05/31 04:28:58;;;;;;;1.05;0.77;;;;;;;;;;5143687;27;20241;-20
2022/05/31 04:31:25;;;;;;;1.60;0.90;;;;;;;;;;5143482;27;20619;-20
2022/05/31 04:33:53;;;;;;;1.52;0.90;;;;;;;;;;5143488;27;20231;-21
2022/05/31 04:36:21;;;;;;;2.17;0.98;;;;;;;;;;5138373;27;20241;-20
2022/05/31 04:38:48;;;;;;;1.63;0.85;;;;;;;;;;5138184;27;21597;-20
2022/05/31 04:41:17;;;;;;;2.15;0.95;;;;;;;;;;5144522;27;20235;-20
2022/05/31 04:43:44;;;;;;;1.95;0.90;;;;;;;;;;5143758;27;20344;-21
2022/05/31 04:46:13;;;;;;;3.28;0.82;;;;;;;;;;5148623;27;20234;-20
2022/05/31 04:48:41;;;;;;;1.95;1.00;;;;;;;;;;5142114;27;21058;-21
2022/05/31 04:51:08;;;;;;;2.08;1.00;;;;;;;;;;5148090;27;20242;-20
2022/05/31 04:53:35;;;;;;;1.80;0.80;;;;;;;;;;5149957;27;20229;-20
2022/05/31 04:56:03;;;;;;;1.20;0.77;;;;;;;;;;5146258;27;20744;-20
2022/05/31 04:58:30;;;;;;;1.13;0.80;;;;;;;;;;5142334;27;20238;-21
2022/05/31 05:00:57;;;;;;;1.50;0.82;;;;;;;;;;5141416;27;20223;-21
2022/05/31 05:03:26;;;;;;;2.35;0.90;;;;;;;;;;5148405;27;20222;-21
2022/05/31 05:05:53;;;;;;;1.92;0.90;;;;;;;;;;5146369;27;20233;-21
2022/05/31 05:08:21;;;;;;;3.17;0.98;;;;;;;;;;5151854;27;20270;-20
2022/05/31 05:10:48;;;;;;;1.67;0.90;;;;;;;;;;5144449;27;20227;-21
2022/05/31 05:13:16;;;;;;;1.40;1.00;;;;;;;;;;5148847;27;20238;-20
2022/05/31 05:15:43;;;;;;;0.98;0.88;;;;;;;;;;5141910;27;21040;-20
2022/05/31 05:18:10;;;;;;;2.55;0.90;;;;;;;;;;5137629;27;20580;-20
2022/05/31 05:20:39;;;;;;;1.88;1.15;;;;;;;;;;5144465;27;20279;-21
2022/05/31 05:23:07;;;;;;;1.80;0.73;;;;;;;;;;5147198;27;20235;-21
2022/05/31 05:25:34;;;;;;;1.80;1.05;;;;;;;;;;5141842;27;20246;-20
2022/05/31 05:30:38;;;;;;;3.45;1.05;;;;;;;;;;5139809;27;20234;-20
2022/05/31 05:30:48;;;;;;;1.40;0.82;;;;;;;;;;5146213;27;20226;-20
2022/05/31 05:33:15;;;;;;;2.47;0.95;;;;;;;;;;5150942;27;20739;-20
2022/05/31 05:35:44;;;;;;;1.38;0.95;;;;;;;;;;5146580;27;20242;-20
2022/05/31 05:38:11;;;;;;;3.63;1.00;;;;;;;;;;5149679;27;20238;-20
2022/05/31 05:40:38;;;;;;;3.10;1.10;;;;;;;;;;5140393;27;20942;-20
2022/05/31 05:43:06;;;;;;;1.33;0.73;;;;;;;;;;5135986;27;20227;-20
2022/05/31 05:45:34;;;;;;;3.00;1.10;;;;;;;;;;5145603;27;20243;-21
2022/05/31 05:48:01;;;;;;;1.38;0.90;;;;;;;;;;5146336;27;20234;-21
2022/05/31 05:50:33;;;;;;;1.90;1.00;;;;;;;;;;5135681;27;20227;-20
2022/05/31 05:53:04;;;;;;;2.25;0.98;;;;;;;;;;5130888;27;20228;-20
2022/05/31 05:55:35;;;;;;;0.88;0.68;;;;;;;;;;5138029;27;20280;-20
2022/05/31 05:58:03;;;;;;;2.42;0.77;;;;;;;;;;5140948;27;20241;-21
2022/05/31 06:00:30;;;;;;;2.28;0.90;;;;;;;;;;5131303;27;20233;-20
2022/05/31 06:02:59;;;;;;;1.20;0.80;;;;;;;;;;5136400;27;20231;-20
2022/05/31 06:05:27;;;;;;;1.70;0.82;;;;;;;;;;5138822;27;20243;-20
2022/05/31 06:07:55;;;;;;;3.72;1.00;;;;;;;;;;5135570;27;20714;-20
2022/05/31 06:10:24;;;;;;;3.08;1.00;;;;;;;;;;5137646;27;20227;-20
2022/05/31 06:12:52;;;;;;;1.30;0.95;;;;;;;;;;5136148;27;20231;-20
2022/05/31 06:15:20;;;;;;;3.50;1.65;;;;;;;;;;5137523;27;20227;-20
2022/05/31 06:17:47;;;;;;;5.25;1.10;;;;;;;;;;5136552;27;20231;-21
2022/05/31 06:20:15;;;;;;;1.33;0.90;;;;;;;;;;5144370;27;20867;-20
2022/05/31 06:22:42;;;;;;;3.55;1.00;;;;;;;;;;5136375;27;20270;-21
2022/05/31 06:25:10;;;;;;;1.95;1.30;;;;;;;;;;5140816;27;21046;-21
2022/05/31 06:27:38;;;;;;;3.22;1.10;;;;;;;;;;5137182;27;20261;-20
2022/05/31 06:30:06;;;;;;;2.25;1.23;;;;;;;;;;5135946;27;20717;-20
2022/05/31 06:32:34;;;;;;;3.80;1.27;;;;;;;;;;5133699;27;20257;-20
2022/05/31 06:35:01;;;;;;;4.07;1.13;;;;;;;;;;5134146;27;20238;-20
2022/05/31 06:37:30;;;;;;;3.90;1.20;;;;;;;;;;5133907;27;20693;-21
2022/05/31 06:39:57;;;;;;;2.33;1.00;;;;;;;;;;5146410;27;20227;-21
2022/05/31 06:42:25;;;;;;;3.67;1.05;;;;;;;;;;5138556;27;20227;-21
2022/05/31 06:44:53;;;;;;;4.10;1.20;;;;;;;;;;5144053;27;20238;-21
2022/05/31 06:47:20;;;;;;;2.22;1.17;;;;;;;;;;5143440;27;20246;-20
2022/05/31 06:49:48;;;;;;;3.42;1.48;;;;;;;;;;5137134;27;20236;-20
2022/05/31 06:57:45;;;;;;;3.78;1.00;;;;;;;;;;5139671;27;20239;-20
2022/05/31 07:00:15;;;;;;;17.45;1.70;;;;;;;;;;5137896;27;20240;-20
2022/05/31 07:02:42;;;;;;;5.55;1.75;;;;;;;;;;5134227;27;20231;-21
2022/05/31 07:05:10;;;;;;;9.93;1.52;;;;;;;;;;5137736;27;20241;-20
2022/05/31 07:07:37;;;;;;;9.90;1.38;;;;;;;;;;5138898;27;20233;-20
2022/05/31 07:10:06;;;;;;;3.58;1.50;;;;;;;;;;5144087;27;20682;-21
2022/05/31 07:12:33;;;;;;;20.88;2.10;;;;;;;;;;5140830;27;20231;-21
2022/05/31 07:15:01;;;;;;;20.25;2.35;;;;;;;;;;5135647;27;20427;-20
2022/05/31 07:17:29;;;;;;;14.48;2.00;;;;;;;;;;5135221;27;20241;-21
2022/05/31 07:19:57;;;;;;;8.18;1.63;;;;;;;;;;5136337;27;20262;-21
2022/05/31 07:22:34;;;;;;;20.05;1.80;;;;;;;;;;5134306;27;21124;-21
2022/05/31 07:25:01;;;;;;;7.63;1.42;;;;;;;;;;5143778;27;21066;-21
2022/05/31 07:27:28;;;;;;;12.32;1.65;;;;;;;;;;5138256;27;20234;-19
2022/05/31 07:29:56;;;;;;;5.00;1.80;;;;;;;;;;5134558;27;20291;-20
2022/05/31 07:32:23;;;;;;;7.80;1.70;;;;;;;;;;5137263;27;20243;-19
2022/05/31 07:35:12;;;;;;;5.20;1.60;;;;;;;;;;5139636;27;20222;-21
2022/05/31 07:37:39;;;;;;;6.07;2.00;;;;;;;;;;5142828;27;20997;-21
2022/05/31 07:40:07;;;;;;;9.88;2.10;;;;;;;;;;5136385;27;20227;-21
2022/05/31 07:42:34;;;;;;;10.85;1.75;;;;;;;;;;5146055;27;20257;-21
2022/05/31 07:45:02;;;;;;;7.60;1.92;;;;;;;;;;5136926;27;20242;-21
2022/05/31 07:47:29;;;;;;;6.43;1.50;;;;;;;;;;5137737;27;20238;-21
2022/05/31 07:49:56;;;;;;;3.40;1.80;;;;;;;;;;5143361;27;20296;-19
2022/05/31 07:52:25;;;;;;;5.15;1.58;;;;;;;;;;5127966;27;20232;-21
2022/05/31 07:54:53;;;;;;;9.88;1.80;;;;;;;;;;5147641;27;20230;-21
2022/05/31 08:00:06;;;;;;;9.43;1.83;;;;;;;;;;5148046;27;20231;-21
2022/05/31 08:02:34;;;;;;;13.00;1.73;;;;;;;;;;5137199;27;21959;-22
2022/05/31 08:05:01;;;;;;;4.63;2.03;;;;;;;;;;5148822;27;20233;-19
2022/05/31 08:07:30;;;;;;;5.80;1.42;;;;;;;;;;5140905;27;20242;-19
2022/05/31 08:09:57;;;;;;;3.10;1.50;;;;;;;;;;5134361;27;20268;-20
2022/05/31 08:12:25;;;;;;;2.88;1.65;;;;;;;;;;5135460;27;20274;-19
2022/05/31 08:14:52;;;;;;;5.45;1.75;;;;;;;;;;5140222;27;20257;-19
2022/05/31 08:17:19;;;;;;;3.08;1.50;;;;;;;;;;5135453;27;20275;-18
2022/05/31 08:19:47;;;;;;;8.05;1.70;;;;;;;;;;5134082;27;20245;-19
2022/05/31 08:22:14;;;;;;;4.90;1.63;;;;;;;;;;5133461;27;20218;-19
2022/05/31 08:24:43;;;;;;;2.45;1.70;;;;;;;;;;5130896;27;20994;-19
2022/05/31 08:27:11;;;;;;;6.75;1.80;;;;;;;;;;5147017;27;20274;-21
2022/05/31 08:29:39;;;;;;;2.58;1.75;;;;;;;;;;5136944;27;20234;-19
2022/05/31 08:32:07;;;;;;;2.70;1.80;;;;;;;;;;5142605;27;20706;-19
2022/05/31 08:34:34;;;;;;;3.10;1.77;;;;;;;;;;5136303;27;20227;-18
2022/05/31 08:37:01;;;;;;;1.70;1.48;;;;;;;;;;5140256;27;20608;-19
2022/05/31 08:39:29;;;;;;;6.05;1.67;;;;;;;;;;5140997;27;20235;-19
2022/05/31 08:42:01;;;;;;;5.93;2.10;;;;;;;;;;5136598;27;20227;-19
2022/05/31 08:44:34;;;;;;;5.07;1.80;;;;;;;;;;5136143;27;20716;-19
2022/05/31 08:47:03;;;;;;;7.30;1.77;;;;;;;;;;5129943;27;20424;-19
2022/05/31 08:52:28;;;;;;;2.83;2.10;;;;;;;;;;5136402;27;20238;-19
2022/05/31 08:57:44;;;;;;;7.95;2.20;;;;;;;;;;5141267;27;20239;-18
2022/05/31 09:00:13;;;;;;;6.25;2.42;;;;;;;;;;5142250;27;20226;-19
2022/05/31 09:02:42;;;;;;;9.15;2.30;;;;;;;;;;5134213;27;20427;-21
2022/05/31 09:05:16;;;;;;;5.65;2.75;;;;;;;;;;5142717;27;20234;-21
2022/05/31 09:07:43;;;;;;;4.38;2.60;;;;;;;;;;5142676;27;20774;-19
2022/05/31 09:10:13;;;;;;;6.57;2.60;;;;;;;;;;5141613;27;20239;-18
2022/05/31 09:12:44;;;;;;;5.38;2.38;;;;;;;;;;5143832;27;20226;-19
2022/05/31 09:15:14;;;;;;;5.68;2.13;;;;;;;;;;5137403;27;20239;-18
2022/05/31 09:17:45;;;;;;;4.90;2.60;;;;;;;;;;5139001;27;20236;-19
2022/05/31 09:20:14;;;;;;;5.47;2.55;;;;;;;;;;5133465;27;20241;-18
2022/05/31 09:22:43;;;;;;;11.00;2.67;;;;;;;;;;5146215;27;20219;-19
2022/05/31 09:25:11;;;;;;;11.13;3.03;;;;;;;;;;5141047;27;20240;-19
2022/05/31 09:27:40;;;;;;;5.10;2.38;;;;;;;;;;5144256;27;20905;-19
2022/05/31 09:30:10;;;;;;;4.68;2.53;;;;;;;;;;5144642;27;20982;-19
2022/05/31 09:32:45;;;;;;;7.68;3.00;;;;;;;;;;5134584;27;21476;-19
2022/05/31 09:35:19;;;;;;;6.65;2.80;;;;;;;;;;5143052;27;20985;-19
2022/05/31 09:37:50;;;;;;;6.00;2.80;;;;;;;;;;5143084;27;20225;-19
2022/05/31 09:40:22;;;;;;;10.68;3.40;;;;;;;;;;5139430;27;20231;-19
2022/05/31 09:42:52;;;;;;;7.57;2.70;;;;;;;;;;5137808;27;20918;-17
2022/05/31 09:45:21;;;;;;;6.30;2.88;;;;;;;;;;5137482;27;20440;-20
2022/05/31 09:47:50;;;;;;;4.80;3.05;;;;;;;;;;5137584;27;20243;-19
2022/05/31 09:50:25;;;;;;;4.78;3.05;;;;;;;;;;5142370;27;20226;-18
2022/05/31 09:52:56;;;;;;;4.68;2.60;;;;;;;;;;5136004;27;20231;-19
2022/05/31 09:58:19;;;;;;;6.88;3.00;;;;;;;;;;5138345;27;20238;-19
2022/05/31 10:01:01;;;;;;;7.35;2.85;;;;;;;;;;5133916;27;20420;-19
2022/05/31 10:03:33;;;;;;;7.30;3.33;;;;;;;;;;5143387;27;20431;-18
2022/05/31 10:06:04;;;;;;;10.13;3.50;;;;;;;;;;5143401;27;20410;-19
2022/05/31 10:08:32;;;;;;;17.75;4.35;;;;;;;;;;5148435;27;20709;-19
2022/05/31 10:11:03;;;;;;;11.25;3.67;;;;;;;;;;5131798;27;20313;-18
2022/05/31 10:13:35;;;;;;;13.05;3.58;;;;;;;;;;5135140;27;20257;-18
2022/05/31 10:16:10;;;;;;;14.63;4.00;;;;;;;;;;5146015;27;20740;-19
2022/05/31 10:18:45;;;;;;;7.50;3.90;;;;;;;;;;5137939;27;20235;-19
2022/05/31 10:21:12;;;;;;;7.32;4.75;;;;;;;;;;5135142;27;20230;-19
2022/05/31 10:23:41;;;;;;;4.93;4.05;;;;;;;;;;5142532;27;20235;-19
2022/05/31 10:26:08;;;;;;;10.02;5.60;;;;;;;;;;5142762;27;20245;-20
2022/05/31 10:28:36;;;;;;;6.38;5.78;;;;;;;;;;5136531;27;20234;-20
2022/05/31 10:31:05;;;;;;;9.75;5.30;;;;;;;;;;5141043;27;20728;-21
2022/05/31 10:33:34;;;;;;;5.53;4.97;;;;;;;;;;5137432;27;20234;-20
2022/05/31 10:36:15;;;;;;;9.85;6.45;;;;;;;;;;5141817;27;20411;-18
2022/05/31 10:38:43;;;;;;;12.38;6.65;;;;;;;;;;5143501;27;20218;-20
2022/05/31 10:41:12;;;;;;;14.50;5.18;;;;;;;;;;5142417;27;20231;-19
2022/05/31 10:43:40;;;;;;;9.35;5.95;;;;;;;;;;5136487;27;20833;-19
2022/05/31 10:46:11;;;;;;;9.30;5.38;;;;;;;;;;5129888;27;20239;-18
2022/05/31 10:48:46;;;;;;;9.23;4.85;;;;;;;;;;5132471;27;20246;-19
2022/05/31 10:51:16;;;;;;;6.47;4.25;;;;;;;;;;5137868;27;20280;-21
2022/05/31 10:53:44;;;;;;;10.55;4.45;;;;;;;;;;5146220;27;20231;-21
2022/05/31 10:56:13;;;;;;;6.60;3.88;;;;;;;;;;5141836;27;20230;-21
2022/05/31 10:58:46;;;;;;;5.47;3.72;;;;;;;;;;5144230;27;20233;-19
2022/05/31 11:01:18;;;;;;;4.15;3.38;;;;;;;;;;5146507;27;20230;-18
2022/05/31 11:03:47;;;;;;;5.20;3.40;;;;;;;;;;5146724;27;21389;-19
2022/05/31 11:06:21;;;;;;;6.55;3.40;;;;;;;;;;5139996;27;20694;-20
2022/05/31 11:11:42;;;;;;;8.30;2.95;;;;;;;;;;5131963;27;20424;-21
2022/05/31 11:14:19;;;;;;;5.78;3.03;;;;;;;;;;5142050;27;20253;-21
2022/05/31 11:16:48;;;;;;;6.75;3.10;;;;;;;;;;5144794;27;20223;-20
2022/05/31 11:19:24;;;;;;;5.07;2.97;;;;;;;;;;5137588;27;20431;-21
2022/05/31 11:21:55;;;;;;;5.20;2.40;;;;;;;;;;5143283;27;21349;-21
2022/05/31 11:24:27;;;;;;;8.15;2.88;;;;;;;;;;5133133;27;20246;-21
2022/05/31 11:26:59;;;;;;;11.18;3.25;;;;;;;;;;5139895;27;21296;-20
2022/05/31 11:29:38;;;;;;;11.27;3.17;;;;;;;;;;5134911;27;20412;-21
2022/05/31 11:32:07;;;;;;;10.98;2.33;;;;;;;;;;5143127;27;20230;-19
2022/05/31 11:34:40;;;;;;;7.72;3.20;;;;;;;;;;5135369;27;20978;-18
2022/05/31 11:37:18;;;;;;;10.50;2.88;;;;;;;;;;5140518;27;20231;-19
2022/05/31 11:39:50;;;;;;;7.72;2.63;;;;;;;;;;5135768;27;20219;-21
2022/05/31 11:42:19;;;;;;;9.40;2.40;;;;;;;;;;5138152;27;20236;-19
2022/05/31 11:45:05;;;;;;;6.53;2.40;;;;;;;;;;5139367;27;20231;-19
2022/05/31 11:47:36;;;;;;;6.75;2.35;;;;;;;;;;5141454;27;20242;-18
2022/05/31 11:50:08;;;;;;;6.72;2.95;;;;;;;;;;5143048;27;20230;-19
2022/05/31 11:52:43;;;;;;;5.65;2.35;;;;;;;;;;5139475;27;20418;-19
2022/05/31 11:55:31;;;;;;;5.13;2.10;;;;;;;;;;5136906;27;20428;-22
2022/05/31 11:58:01;;;;;;;5.78;2.38;;;;;;;;;;5137840;27;20242;-19
2022/05/31 12:00:30;;;;;;;3.53;2.13;;;;;;;;;;5141249;27;20301;-19
2022/05/31 12:02:59;;;;;;;4.18;2.05;;;;;;;;;;5134253;27;20231;-18
2022/05/31 12:05:28;;;;;;;4.40;2.40;;;;;;;;;;5139432;27;20237;-19
2022/05/31 12:07:57;;;;;;;4.45;2.10;;;;;;;;;;5145165;27;20261;-19
2022/05/31 12:10:25;;;;;;;9.43;2.20;;;;;;;;;;5146289;27;20233;-18
2022/05/31 12:12:53;;;;;;;2.65;2.15;;;;;;;;;;5138417;27;20234;-19
2022/05/31 12:15:21;;;;;;;2.88;1.73;;;;;;;;;;5145051;27;20239;-19
2022/05/31 12:17:51;;;;;;;5.30;2.20;;;;;;;;;;5128224;27;20620;-19
2022/05/31 12:20:21;;;;;;;2.78;1.83;;;;;;;;;;5139398;27;21034;-19
2022/05/31 12:22:52;;;;;;;4.72;2.08;;;;;;;;;;5136768;27;20238;-19
2022/05/31 12:25:21;;;;;;;3.50;2.20;;;;;;;;;;5140918;27;20226;-19
2022/05/31 12:27:50;;;;;;;2.90;2.10;;;;;;;;;;5139579;27;20861;-19
2022/05/31 12:30:18;;;;;;;3.97;1.80;;;;;;;;;;5140399;27;20235;-19
2022/05/31 12:32:46;;;;;;;4.80;1.85;;;;;;;;;;5130217;27;20232;-19
2022/05/31 12:35:29;;;;;;;3.20;1.80;;;;;;;;;;5140376;27;20967;-19
2022/05/31 12:38:06;;;;;;;3.33;2.03;;;;;;;;;;5143061;27;20230;-19
2022/05/31 12:40:38;;;;;;;3.88;1.80;;;;;;;;;;5136744;27;20322;-19
2022/05/31 12:43:06;;;;;;;2.67;1.85;;;;;;;;;;5142821;27;20235;-19
2022/05/31 12:45:40;;;;;;;4.00;2.20;;;;;;;;;;5136168;27;20243;-19
2022/05/31 12:48:16;;;;;;;1.83;1.65;;;;;;;;;;5138546;27;20230;-19
2022/05/31 12:50:48;;;;;;;4.75;1.92;;;;;;;;;;5147373;27;20938;-19
2022/05/31 12:53:23;;;;;;;4.43;2.10;;;;;;;;;;5138089;27;20233;-19
2022/05/31 12:55:54;;;;;;;13.38;2.15;;;;;;;;;;5137526;27;21340;-19
2022/05/31 12:58:36;;;;;;;8.20;1.90;;;;;;;;;;5138217;27;20235;-19
2022/05/31 13:01:07;;;;;;;3.10;1.75;;;;;;;;;;5138248;27;20227;-19
2022/05/31 13:03:54;;;;;;;2.20;1.80;;;;;;;;;;5138492;27;20239;-19
2022/05/31 13:06:23;;;;;;;4.93;2.22;;;;;;;;;;5141305;27;20237;-19
2022/05/31 13:08:55;;;;;;;4.32;2.10;;;;;;;;;;5145945;27;20854;-19
2022/05/31 13:19:59;;;;;;;3.00;2.10;;;;;;;;;;5148175;27;20234;-18
2022/05/31 13:22:30;;;;;;;7.07;2.22;;;;;;;;;;5145640;27;20234;-18
2022/05/31 13:25:02;;;;;;;6.40;2.30;;;;;;;;;;5141251;27;20233;-21
2022/05/31 13:27:30;;;;;;;5.68;2.10;;;;;;;;;;5143987;27;20313;-20
2022/05/31 13:30:02;;;;;;;6.28;2.25;;;;;;;;;;5143332;27;20999;-21
2022/05/31 13:32:32;;;;;;;2.33;1.73;;;;;;;;;;5146357;27;20235;-22
2022/05/31 13:34:59;;;;;;;7.38;2.30;;;;;;;;;;5141291;27;21021;-22
2022/05/31 13:37:26;;;;;;;5.30;2.10;;;;;;;;;;5141375;27;20223;-20
2022/05/31 13:39:54;;;;;;;5.65;2.10;;;;;;;;;;5138605;27;20500;-20
2022/05/31 13:42:23;;;;;;;7.35;2.10;;;;;;;;;;5139068;27;20238;-20
2022/05/31 13:44:52;;;;;;;3.45;2.05;;;;;;;;;;5138721;27;21179;-21
2022/05/31 13:47:20;;;;;;;3.92;1.98;;;;;;;;;;5136393;27;20258;-19
2022/05/31 13:49:48;;;;;;;5.50;2.00;;;;;;;;;;5140451;27;20358;-19
2022/05/31 13:52:25;;;;;;;4.35;2.00;;;;;;;;;;5136861;27;20236;-19
2022/05/31 13:54:53;;;;;;;4.63;2.00;;;;;;;;;;5135893;27;20881;-19
2022/05/31 13:57:24;;;;;;;5.30;2.15;;;;;;;;;;5130610;27;20439;-20
2022/05/31 13:59:53;;;;;;;7.10;2.15;;;;;;;;;;5146363;27;20226;-19
2022/05/31 14:02:21;;;;;;;8.23;1.83;;;;;;;;;;5138188;27;20697;-20
2022/05/31 14:04:52;;;;;;;5.03;1.83;;;;;;;;;;5143506;27;20239;-19
2022/05/31 14:07:20;;;;;;;4.60;1.85;;;;;;;;;;5136843;27;20357;-21
2022/05/31 14:09:52;;;;;;;7.90;1.92;;;;;;;;;;5141700;27;20685;-19
2022/05/31 14:12:20;;;;;;;4.10;1.80;;;;;;;;;;5137025;27;20235;-19
2022/05/31 14:14:47;;;;;;;4.65;1.67;;;;;;;;;;5144855;27;20739;-19
2022/05/31 14:17:31;;;;;;;5.93;1.98;;;;;;;;;;5146795;27;21008;-18
2022/05/31 14:20:06;;;;;;;4.07;1.65;;;;;;;;;;5139050;27;20418;-19
2022/05/31 14:22:35;;;;;;;6.32;1.85;;;;;;;;;;5134388;27;20231;-19
2022/05/31 14:25:02;;;;;;;4.25;1.52;;;;;;;;;;5134879;27;20549;-20
2022/05/31 14:27:30;;;;;;;7.65;2.00;;;;;;;;;;5145444;27;20904;-19
2022/05/31 14:29:59;;;;;;;5.40;1.77;;;;;;;;;;5140311;27;20250;-19
2022/05/31 14:32:30;;;;;;;6.50;2.00;;;;;;;;;;5145307;27;20712;-19
2022/05/31 14:34:58;;;;;;;7.60;1.98;;;;;;;;;;5145181;27;20434;-19
2022/05/31 14:37:26;;;;;;;4.70;1.30;;;;;;;;;;5147639;27;20242;-19
2022/05/31 14:39:56;;;;;;;4.43;1.90;;;;;;;;;;5139673;27;21146;-21
2022/05/31 14:42:24;;;;;;;6.05;1.58;;;;;;;;;;5137508;27;20235;-21
2022/05/31 14:44:51;;;;;;;7.00;1.85;;;;;;;;;;5136849;27;20279;-21
2022/05/31 14:47:26;;;;;;;2.75;1.50;;;;;;;;;;5132521;27;20345;-22
2022/05/31 14:50:06;;;;;;;4.82;1.60;;;;;;;;;;5138300;27;21064;-21
2022/05/31 14:52:40;;;;;;;5.30;1.80;;;;;;;;;;5140583;27;20277;-21
2022/05/31 14:55:08;;;;;;;5.60;1.73;;;;;;;;;;5149398;27;20239;-21
2022/05/31 15:00:17;;;;;;;4.80;1.70;;;;;;;;;;5144002;27;20329;-20
2022/05/31 15:02:45;;;;;;;5.35;1.70;;;;;;;;;;5130510;27;21059;-21
2022/05/31 15:05:13;;;;;;;7.15;2.00;;;;;;;;;;5148007;27;20227;-21
2022/05/31 15:07:48;;;;;;;6.50;1.73;;;;;;;;;;5136641;27;20415;-21
2022/05/31 15:10:30;;;;;;;6.15;1.70;;;;;;;;;;5141045;27;20419;-21
2022/05/31 15:21:15;;;;;;;5.30;1.92;;;;;;;;;;5128314;27;21362;-21
2022/05/31 15:23:42;;;;;;;1.52;1.40;;;;;;;;;;5141862;27;20239;-21
2022/05/31 15:26:11;;;;;;;4.50;1.65;;;;;;;;;;5140721;27;20232;-21
2022/05/31 15:28:39;;;;;;;3.35;1.90;;;;;;;;;;5134875;27;20441;-21
2022/05/31 15:31:06;;;;;;;5.63;2.65;;;;;;;;;;5138705;27;20239;-21
2022/05/31 15:33:54;;;;;;;4.63;1.98;;;;;;;;;;5138332;27;20257;-21
2022/05/31 15:36:22;;;;;;;6.82;2.47;;;;;;;;;;5133397;27;20235;-21